Time;durP1;ratioP1;P1;durP2;ratioP2;P2;SDS_P1;SDS_P2;PMS_P1;PMS_P2;Temp;Humidity;BMP_temperature;BMP_pressure;BME280_temperature;BME280_humidity;BME280_pressure;Samples;Min_cycle;Max_cycle;Signal;HPM_P1;HPM_P2
2023/04/22 00:01:23;;;;;;;5.00;3.33;;;;;;;10.48;46.72;149927.19;5061853;28;20035;-64
2023/04/22 00:03:49;;;;;;;5.95;3.75;;;;;;;10.47;47.35;149925.88;5054587;28;20029;-64
2023/04/22 00:06:16;;;;;;;9.10;3.65;;;;;;;10.53;46.59;149941.31;5050896;28;20037;-64
2023/04/22 00:08:42;;;;;;;4.53;2.97;;;;;;;10.43;47.37;149914.34;5063631;28;20051;-66
2023/04/22 00:11:08;;;;;;;5.40;3.60;;;;;;;10.42;47.07;149913.09;5045461;28;20286;-65
2023/04/22 00:13:33;;;;;;;6.03;3.25;;;;;;;10.26;46.92;149872.00;5061922;28;20027;-64
2023/04/22 00:15:59;;;;;;;5.65;3.40;;;;;;;10.31;46.82;149886.09;5052931;28;20025;-65
2023/04/22 00:18:25;;;;;;;4.13;3.28;;;;;;;10.40;46.65;149907.94;5045727;28;20033;-64
2023/04/22 00:20:51;;;;;;;8.20;3.50;;;;;;;10.31;47.79;149884.81;5049140;28;20217;-64
2023/04/22 00:23:16;;;;;;;8.63;3.30;;;;;;;10.38;47.19;149902.81;5065714;28;20033;-64
2023/04/22 00:25:42;;;;;;;7.30;4.05;;;;;;;10.31;46.95;149886.09;5046909;28;20052;-64
2023/04/22 00:28:07;;;;;;;6.95;3.17;;;;;;;10.27;47.53;149875.84;5059328;28;20226;-64
2023/04/22 00:30:34;;;;;;;5.65;3.28;;;;;;;10.26;47.26;149872.00;5056364;28;20065;-64
2023/04/22 00:33:00;;;;;;;4.55;3.20;;;;;;;10.29;47.97;149881.00;5058819;28;20052;-65
2023/04/22 00:35:26;;;;;;;8.77;3.65;;;;;;;10.29;47.68;149879.66;5060758;28;20041;-63
2023/04/22 00:37:52;;;;;;;5.63;3.38;;;;;;;10.34;47.18;149893.81;5065520;28;20039;-63
2023/04/22 00:40:18;;;;;;;4.50;3.55;;;;;;;10.30;47.97;149882.25;5050091;28;20088;-64
2023/04/22 00:42:43;;;;;;;7.57;3.67;;;;;;;10.18;47.72;149854.03;5055700;28;20028;-64
2023/04/22 00:45:11;;;;;;;5.80;3.60;;;;;;;10.15;48.12;149846.34;5059470;28;20092;-63
2023/04/22 00:47:37;;;;;;;10.38;3.70;;;;;;;10.18;48.32;149852.78;5046268;28;20326;-63
2023/04/22 00:50:03;;;;;;;9.68;3.92;;;;;;;10.19;47.80;149856.63;5065161;28;20044;-63
2023/04/22 00:52:29;;;;;;;6.00;3.20;;;;;;;10.10;48.39;149833.53;5048136;28;20045;-63
2023/04/22 00:54:55;;;;;;;5.63;3.50;;;;;;;10.09;49.30;149831.00;5045107;28;20242;-65
2023/04/22 00:57:20;;;;;;;6.35;3.35;;;;;;;10.14;47.36;149843.78;5052105;28;20045;-63
2023/04/22 00:59:47;;;;;;;5.95;3.42;;;;;;;10.11;48.80;149836.09;5062631;28;20096;-62
2023/04/22 01:02:13;;;;;;;5.85;4.03;;;;;;;10.12;48.18;149837.41;5045071;28;20033;-62
2023/04/22 01:04:38;;;;;;;5.20;3.58;;;;;;;10.11;48.26;149834.84;5062697;28;20032;-63
2023/04/22 01:07:04;;;;;;;6.55;3.45;;;;;;;10.10;48.53;149833.53;5051965;28;20044;-63
2023/04/22 01:09:30;;;;;;;6.10;3.67;;;;;;;9.95;48.79;149795.09;5052933;28;20036;-63
2023/04/22 01:11:56;;;;;;;10.70;3.97;;;;;;;9.87;48.59;149774.59;5061077;28;20025;-62
2023/04/22 01:14:22;;;;;;;7.75;3.88;;;;;;;9.77;49.38;149750.22;5043505;28;20097;-64
2023/04/22 01:16:49;;;;;;;5.40;3.42;;;;;;;9.88;48.79;149777.16;5063570;28;20265;-63
2023/04/22 01:19:15;;;;;;;6.32;3.70;;;;;;;9.89;48.38;149781.00;5049420;28;20051;-64
2023/04/22 01:21:43;;;;;;;6.95;3.30;;;;;;;9.90;49.14;149783.53;5054113;28;20309;-63
2023/04/22 01:24:09;;;;;;;4.18;3.20;;;;;;;9.91;49.46;149784.84;5058991;28;20103;-63
2023/04/22 01:26:36;;;;;;;6.07;3.58;;;;;;;9.76;49.69;149747.66;5045183;28;20026;-63
2023/04/22 01:29:03;;;;;;;11.00;4.07;;;;;;;9.74;49.71;149743.81;5064793;28;20025;-64
2023/04/22 01:31:29;;;;;;;7.03;4.18;;;;;;;9.79;49.40;149755.34;5053285;28;20040;-63
2023/04/22 01:33:54;;;;;;;6.40;4.38;;;;;;;9.63;50.61;149715.63;5052894;28;20025;-64
2023/04/22 01:36:20;;;;;;;7.97;3.53;;;;;;;9.61;49.87;149710.50;5043229;28;20033;-63
2023/04/22 01:38:46;;;;;;;8.07;4.10;;;;;;;9.59;50.83;149706.66;5044198;28;20021;-61
2023/04/22 01:41:12;;;;;;;7.32;4.15;;;;;;;9.50;50.86;149684.88;5044121;28;20022;-63
2023/04/22 01:43:39;;;;;;;9.75;4.53;;;;;;;9.42;49.75;149663.06;5061544;28;20063;-61
2023/04/22 01:46:05;;;;;;;6.53;3.53;;;;;;;9.48;50.82;149678.47;5050382;28;20344;-63
2023/04/22 01:48:31;;;;;;;6.88;4.57;;;;;;;9.41;50.24;149661.81;5051042;28;20051;-63
2023/04/22 01:50:56;;;;;;;7.85;3.95;;;;;;;9.14;51.36;149595.16;5060819;28;20369;-62
2023/04/22 01:53:22;;;;;;;6.55;4.05;;;;;;;9.40;50.89;149657.97;5043745;28;20044;-63
2023/04/22 01:55:47;;;;;;;5.95;4.03;;;;;;;9.43;50.08;149665.63;5061918;28;20033;-63
2023/04/22 01:58:13;;;;;;;8.10;4.38;;;;;;;9.43;50.50;149666.91;5050391;28;20025;-63
2023/04/22 02:00:39;;;;;;;8.52;4.13;;;;;;;9.33;51.57;149641.28;5043982;28;20033;-64
2023/04/22 02:03:05;;;;;;;7.72;4.88;;;;;;;9.27;51.20;149627.19;5048301;28;20240;-63
2023/04/22 02:05:31;;;;;;;10.40;4.28;;;;;;;9.27;51.12;149627.19;5045923;28;20096;-62
2023/04/22 02:07:56;;;;;;;5.15;3.75;;;;;;;9.30;52.10;149633.63;5044045;28;20370;-62
2023/04/22 02:10:22;;;;;;;10.07;4.13;;;;;;;9.21;51.12;149610.56;5058300;28;20037;-63
2023/04/22 02:12:48;;;;;;;6.50;4.00;;;;;;;9.24;51.19;149619.50;5053399;28;20087;-62
2023/04/22 02:15:13;;;;;;;8.02;4.53;;;;;;;9.25;51.52;149620.78;5048624;28;20035;-63
2023/04/22 02:17:41;;;;;;;6.50;4.35;;;;;;;9.12;51.88;149590.06;5062890;28;20033;-61
2023/04/22 02:20:09;;;;;;;7.65;4.30;;;;;;;9.24;52.77;149619.50;5043870;28;20075;-61
2023/04/22 02:22:35;;;;;;;8.90;3.95;;;;;;;9.20;52.03;149608.00;5059977;28;20199;-61
2023/04/22 02:25:02;;;;;;;8.10;4.20;;;;;;;9.15;52.67;149597.75;5051660;28;20029;-61
2023/04/22 02:27:29;;;;;;;8.82;4.30;;;;;;;9.10;52.26;149583.66;5051040;28;20052;-63
2023/04/22 02:29:54;;;;;;;11.05;4.50;;;;;;;9.09;51.83;149582.41;5060709;28;20348;-65
2023/04/22 02:32:20;;;;;;;8.40;4.63;;;;;;;9.07;53.34;149577.25;5054454;28;20079;-64
2023/04/22 02:34:47;;;;;;;10.63;4.85;;;;;;;8.96;52.16;149549.06;5055083;28;20025;-65
2023/04/22 02:37:13;;;;;;;10.13;4.20;;;;;;;8.99;52.99;149556.72;5048789;28;20033;-64
2023/04/22 02:39:38;;;;;;;10.75;4.35;;;;;;;9.00;53.46;149559.31;5042861;28;20328;-64
2023/04/22 02:42:04;;;;;;;7.45;3.97;;;;;;;9.01;52.73;149560.56;5047196;28;20029;-64
2023/04/22 02:44:29;;;;;;;5.55;4.00;;;;;;;9.00;53.03;149559.31;5062920;28;20064;-64
2023/04/22 02:46:55;;;;;;;5.93;4.50;;;;;;;9.11;53.52;149587.50;5044248;28;20036;-64
2023/04/22 02:49:21;;;;;;;11.55;4.32;;;;;;;9.13;53.47;149592.59;5057454;28;20300;-64
2023/04/22 02:51:46;;;;;;;8.25;4.05;;;;;;;9.20;52.91;149609.25;5055356;28;20040;-64
2023/04/22 02:54:12;;;;;;;8.43;4.63;;;;;;;9.21;52.99;149610.56;5058114;28;20048;-63
2023/04/22 02:56:37;;;;;;;10.75;4.18;;;;;;;9.20;53.22;149609.25;5043087;28;20037;-63
2023/04/22 02:59:03;;;;;;;6.32;3.78;;;;;;;9.19;52.87;149605.44;5043154;28;20064;-63
2023/04/22 03:01:28;;;;;;;8.07;3.92;;;;;;;9.22;52.92;149613.09;5058329;28;20040;-64
2023/04/22 03:03:55;;;;;;;6.70;3.72;;;;;;;9.16;53.26;149599.00;5052446;28;20030;-64
2023/04/22 03:06:21;;;;;;;8.90;4.45;;;;;;;9.23;52.56;149615.69;5042760;28;20056;-64
2023/04/22 03:08:46;;;;;;;7.10;4.07;;;;;;;9.34;52.83;149643.88;5044107;28;20277;-64
2023/04/22 03:11:12;;;;;;;9.10;4.03;;;;;;;9.11;52.15;149586.22;5063083;28;20096;-63
2023/04/22 03:13:38;;;;;;;8.70;4.18;;;;;;;9.54;52.84;149693.84;5061712;28;20035;-63
2023/04/22 03:16:04;;;;;;;8.10;3.75;;;;;;;9.79;51.56;149755.34;5050986;28;20033;-63
2023/04/22 03:18:29;;;;;;;9.57;4.10;;;;;;;10.02;50.76;149814.31;5042693;28;20041;-63
2023/04/22 03:20:55;;;;;;;7.53;4.22;;;;;;;10.38;50.80;149901.56;5045103;28;20032;-65
2023/04/22 03:23:21;;;;;;;5.20;3.50;;;;;;;10.60;49.50;149956.69;5061493;28;20092;-64
2023/04/22 03:25:46;;;;;;;5.07;3.58;;;;;;;10.76;49.47;149996.44;5045113;28;20430;-64
2023/04/22 03:28:12;;;;;;;9.80;4.97;;;;;;;11.16;48.37;150097.78;5055351;28;20033;-65
2023/04/22 03:30:37;;;;;;;6.22;3.63;;;;;;;11.57;47.62;150200.44;5054219;28;20029;-63
2023/04/22 03:33:03;;;;;;;9.93;4.40;;;;;;;11.42;47.73;150161.94;5057495;28;20032;-64
2023/04/22 03:35:29;;;;;;;8.25;3.85;;;;;;;11.49;47.65;150179.91;5042388;28;20025;-65
2023/04/22 03:37:54;;;;;;;6.68;3.80;;;;;;;11.57;46.85;150199.13;5042379;28;20053;-65
2023/04/22 03:40:20;;;;;;;9.75;4.18;;;;;;;11.73;46.80;150240.22;5055898;28;20025;-66
2023/04/22 03:42:46;;;;;;;7.88;3.70;;;;;;;11.88;46.70;150277.44;5056727;28;20032;-64
2023/04/22 03:45:11;;;;;;;6.15;3.33;;;;;;;12.16;45.10;150345.56;5050481;28;20442;-64
2023/04/22 03:47:37;;;;;;;5.28;3.20;;;;;;;12.77;43.83;150499.66;5066328;28;20032;-63
2023/04/22 03:50:02;;;;;;;5.20;3.83;;;;;;;13.35;42.84;150642.34;5046407;28;20030;-62
2023/04/22 03:52:29;;;;;;;7.43;3.40;;;;;;;13.40;43.00;150655.19;5061436;28;20064;-64
2023/04/22 03:54:54;;;;;;;7.80;3.45;;;;;;;12.63;43.80;150462.38;5065921;28;20090;-64
2023/04/22 03:57:20;;;;;;;4.47;3.28;;;;;;;12.53;44.59;150439.28;5064294;28;20040;-64
2023/04/22 03:59:45;;;;;;;5.07;3.50;;;;;;;12.42;45.29;150411.03;5065611;28;20293;-64
2023/04/22 04:02:11;;;;;;;4.25;2.75;;;;;;;12.12;44.41;150335.28;5065681;28;20036;-65
2023/04/22 04:04:36;;;;;;;6.82;3.78;;;;;;;12.09;45.06;150328.88;5065279;28;20026;-64
2023/04/22 04:07:02;;;;;;;8.00;3.45;;;;;;;12.03;44.88;150313.47;5054556;28;20037;-65
2023/04/22 04:09:28;;;;;;;5.45;3.20;;;;;;;11.98;45.46;150300.63;5045300;28;20079;-65
2023/04/22 04:11:53;;;;;;;6.95;3.17;;;;;;;11.82;45.27;150260.78;5046966;28;20333;-64
2023/04/22 04:14:19;;;;;;;5.65;2.78;;;;;;;11.87;45.99;150273.59;5065774;28;20025;-65
2023/04/22 04:16:44;;;;;;;4.20;2.90;;;;;;;11.77;45.88;150247.94;5048892;28;20060;-64
2023/04/22 04:19:10;;;;;;;7.03;2.92;;;;;;;11.74;45.65;150241.50;5045958;28;20209;-64
2023/04/22 04:21:36;;;;;;;5.93;3.20;;;;;;;11.82;45.63;150262.03;5045648;28;20035;-63
2023/04/22 04:24:06;;;;;;;3.88;2.65;;;;;;;11.77;45.64;150249.19;5048232;28;20095;-64
2023/04/22 04:26:32;;;;;;;3.75;2.90;;;;;;;11.79;46.65;150253.09;5065461;28;20044;-63
2023/04/22 04:29:00;;;;;;;5.03;3.00;;;;;;;11.84;46.05;150267.22;5047331;28;20029;-63
2023/04/22 04:31:27;;;;;;;6.25;2.90;;;;;;;11.91;45.90;150285.19;5058141;28;20063;-63
2023/04/22 04:33:52;;;;;;;6.85;2.90;;;;;;;11.85;45.05;150269.75;5062788;28;20242;-63
2023/04/22 04:36:18;;;;;;;5.55;3.20;;;;;;;11.97;45.55;150298.03;5049899;28;20063;-63
2023/04/22 04:38:45;;;;;;;5.72;2.78;;;;;;;12.06;45.30;150321.16;5065226;28;20055;-64
2023/04/22 04:41:11;;;;;;;6.10;2.50;;;;;;;11.93;45.14;150289.03;5045130;28;20025;-63
2023/04/22 04:43:37;;;;;;;5.40;2.88;;;;;;;12.04;45.19;150316.00;5060836;28;20027;-64
2023/04/22 04:46:03;;;;;;;4.55;2.50;;;;;;;11.73;45.31;150240.22;5053296;28;20245;-63
2023/04/22 04:48:28;;;;;;;3.38;2.33;;;;;;;12.04;44.63;150317.31;5051215;28;20041;-65
2023/04/22 04:50:54;;;;;;;5.45;2.90;;;;;;;11.92;45.10;150287.72;5063929;28;20032;-64
2023/04/22 04:53:21;;;;;;;4.32;2.65;;;;;;;12.31;44.67;150382.78;5045003;28;20338;-64
2023/04/22 04:55:46;;;;;;;4.95;2.90;;;;;;;12.23;44.36;150364.81;5060762;28;20433;-64
2023/04/22 04:58:12;;;;;;;6.65;2.45;;;;;;;12.33;44.80;150387.94;5053066;28;20025;-65
2023/04/22 05:00:38;;;;;;;5.30;2.45;;;;;;;12.26;44.84;150372.50;5052356;28;20036;-63
2023/04/22 05:03:03;;;;;;;4.18;2.50;;;;;;;12.15;44.22;150344.25;5062530;28;20025;-64
2023/04/22 05:05:29;;;;;;;4.03;2.10;;;;;;;12.20;44.26;150355.81;5044798;28;20364;-65
2023/04/22 05:07:55;;;;;;;3.55;2.13;;;;;;;12.88;42.81;150525.34;5062757;28;20070;-65
2023/04/22 05:10:20;;;;;;;4.30;2.70;;;;;;;13.87;41.29;150773.44;5051717;28;20032;-65
2023/04/22 05:12:50;;;;;;;4.50;2.30;;;;;;;14.32;40.45;150885.28;5053072;28;20048;-65
2023/04/22 05:15:15;;;;;;;6.95;2.60;;;;;;;14.65;39.74;150967.66;5060392;28;20310;-65
2023/04/22 05:17:41;;;;;;;5.38;2.70;;;;;;;14.32;40.39;150885.28;5044725;28;20087;-62
2023/04/22 05:20:08;;;;;;;5.00;2.30;;;;;;;14.30;40.33;150881.44;5044651;28;20029;-62
2023/04/22 05:22:35;;;;;;;2.53;2.00;;;;;;;14.41;40.12;150908.47;5059320;28;20097;-64
2023/04/22 05:25:01;;;;;;;7.07;2.35;;;;;;;14.21;39.10;150858.31;5054209;28;20026;-64
2023/04/22 05:27:27;;;;;;;10.68;2.30;;;;;;;13.99;38.90;150803.00;5050030;28;20305;-65
2023/04/22 05:29:53;;;;;;;5.70;2.58;;;;;;;13.97;39.71;150797.88;5063582;28;20032;-67
2023/04/22 05:32:18;;;;;;;11.20;2.40;;;;;;;14.02;40.03;150809.44;5056531;28;20029;-67
2023/04/22 05:34:44;;;;;;;5.82;2.63;;;;;;;14.27;39.79;150872.47;5048130;28;20028;-65
2023/04/22 05:37:10;;;;;;;6.57;1.92;;;;;;;14.05;40.30;150818.47;5044102;28;20036;-65
2023/04/22 05:39:35;;;;;;;3.78;2.03;;;;;;;14.32;39.21;150885.28;5050906;28;20036;-64
2023/04/22 05:42:01;;;;;;;5.40;2.20;;;;;;;14.71;37.91;150981.81;5062546;28;20044;-63
2023/04/22 05:44:27;;;;;;;6.32;2.20;;;;;;;15.34;37.48;151141.38;5042790;28;20341;-66
2023/04/22 05:46:52;;;;;;;4.05;2.20;;;;;;;15.12;37.22;151086.06;5061168;28;20025;-64
2023/04/22 05:49:18;;;;;;;4.40;2.35;;;;;;;15.53;36.46;151189.03;5051599;28;20031;-64
2023/04/22 05:51:43;;;;;;;2.55;2.08;;;;;;;15.84;36.61;151266.28;5051685;28;20029;-66
2023/04/22 05:54:09;;;;;;;6.00;2.20;;;;;;;16.30;35.89;151380.88;5061350;28;20320;-64
2023/04/22 05:56:34;;;;;;;3.63;2.05;;;;;;;16.97;35.20;151548.38;5043778;28;20034;-66
2023/04/22 05:59:00;;;;;;;3.10;1.90;;;;;;;17.36;34.46;151646.34;5061698;28;20029;-64
2023/04/22 06:01:26;;;;;;;3.08;1.52;;;;;;;17.54;34.19;151691.47;5050030;28;20210;-64
2023/04/22 06:03:51;;;;;;;6.10;1.90;;;;;;;16.69;34.09;151478.78;5051851;28;20190;-64
2023/04/22 06:06:17;;;;;;;3.20;2.00;;;;;;;17.25;34.76;151619.28;5059368;28;20053;-64
2023/04/22 06:08:43;;;;;;;1.70;1.40;;;;;;;17.58;34.24;151700.47;5043772;28;20037;-64
2023/04/22 06:11:09;;;;;;;1.83;1.63;;;;;;;17.37;33.94;151648.94;5062604;28;20036;-65
2023/04/22 06:13:34;;;;;;;6.57;1.98;;;;;;;17.37;34.10;151648.94;5058123;28;20032;-64
2023/04/22 06:16:00;;;;;;;6.28;1.85;;;;;;;17.58;33.45;151700.47;5064635;28;20222;-65
2023/04/22 06:18:26;;;;;;;4.63;1.70;;;;;;;17.63;33.79;151713.38;5051524;28;20022;-65
2023/04/22 06:20:52;;;;;;;4.72;1.30;;;;;;;17.39;32.95;151654.06;5047349;28;20018;-65
2023/04/22 06:23:18;;;;;;;1.60;1.23;;;;;;;16.66;34.02;151469.75;5051028;28;20036;-64
2023/04/22 06:25:44;;;;;;;3.20;1.38;;;;;;;16.91;33.71;151532.94;5052899;28;20045;-65
2023/04/22 06:28:09;;;;;;;5.80;1.40;;;;;;;17.50;33.79;151681.16;5052692;28;20222;-64
2023/04/22 06:30:35;;;;;;;5.05;1.58;;;;;;;17.68;33.02;151726.25;5046961;28;20077;-64
2023/04/22 06:33:00;;;;;;;3.75;1.80;;;;;;;18.34;32.92;151890.06;5059632;28;20329;-63
2023/04/22 06:35:26;;;;;;;1.65;1.42;;;;;;;18.25;32.28;151869.41;5053982;28;20025;-66
2023/04/22 06:37:52;;;;;;;5.32;1.67;;;;;;;18.43;33.12;151913.31;5059730;28;20028;-67
2023/04/22 06:40:17;;;;;;;1.65;1.20;;;;;;;17.86;32.08;151770.13;5051134;28;20021;-66
2023/04/22 06:42:43;;;;;;;3.47;1.30;;;;;;;17.88;32.01;151775.25;5050206;28;20032;-67
2023/04/22 06:45:11;;;;;;;5.95;1.30;;;;;;;18.52;32.23;151936.50;5060502;28;20322;-68
2023/04/22 06:47:38;;;;;;;2.10;1.27;;;;;;;18.64;31.98;151966.19;5042977;28;20029;-66
2023/04/22 06:50:06;;;;;;;2.88;1.65;;;;;;;18.65;32.01;151968.75;5061230;28;20048;-67
2023/04/22 06:52:32;;;;;;;5.50;1.65;;;;;;;19.05;31.82;152069.41;5049219;28;20338;-67
2023/04/22 06:54:57;;;;;;;4.13;2.05;;;;;;;18.68;31.77;151975.22;5044138;28;20096;-69
2023/04/22 06:57:23;;;;;;;7.28;1.80;;;;;;;18.38;31.80;151901.66;5047447;28;20037;-70
2023/04/22 06:59:48;;;;;;;2.22;1.30;;;;;;;19.05;31.37;152069.41;5063236;28;20057;-72
2023/04/22 07:02:14;;;;;;;7.20;1.60;;;;;;;19.55;30.88;152194.59;5043220;28;20079;-69
2023/04/22 07:04:40;;;;;;;3.67;1.75;;;;;;;20.15;31.06;152344.44;5057663;28;20031;-71
2023/04/22 07:07:05;;;;;;;2.78;1.50;;;;;;;20.07;30.65;152325.06;5052918;28;20025;-68
2023/04/22 07:09:32;;;;;;;7.45;2.03;;;;;;;19.93;29.89;152288.94;5047740;28;20029;-67
2023/04/22 07:11:58;;;;;;;5.05;1.50;;;;;;;20.13;28.92;152340.56;5062250;28;20051;-67
2023/04/22 07:14:26;;;;;;;4.53;1.58;;;;;;;20.65;28.60;152469.69;5041668;28;20310;-69
2023/04/22 07:16:51;;;;;;;7.85;1.70;;;;;;;20.80;29.62;152507.25;5060306;28;20043;-69
2023/04/22 07:19:17;;;;;;;4.22;1.27;;;;;;;20.83;28.82;152514.97;5058057;28;20320;-67
2023/04/22 07:21:43;;;;;;;2.55;1.10;;;;;;;20.30;29.49;152381.91;5067118;28;20036;-65
2023/04/22 07:24:10;;;;;;;10.27;2.10;;;;;;;19.60;30.54;152207.53;5064804;28;20083;-69
2023/04/22 07:26:37;;;;;;;2.20;1.33;;;;;;;19.24;30.48;152117.19;5047985;28;20041;-69
2023/04/22 07:29:03;;;;;;;2.63;1.20;;;;;;;18.82;30.75;152010.06;5063832;28;20028;-66
2023/04/22 07:31:28;;;;;;;4.55;1.30;;;;;;;18.68;31.46;151975.22;5058375;28;20037;-66
2023/04/22 07:33:54;;;;;;;4.72;1.42;;;;;;;18.32;31.46;151884.94;5057787;28;20040;-67
2023/04/22 07:36:20;;;;;;;4.63;1.30;;;;;;;17.75;31.52;151743.03;5028335;28;20042;-66
2023/04/22 07:38:46;;;;;;;4.07;1.27;;;;;;;18.01;31.55;151808.81;5046514;28;20045;-66
2023/04/22 07:41:11;;;;;;;1.92;1.55;;;;;;;17.59;32.24;151703.06;5064800;28;20034;-66
2023/04/22 07:43:37;;;;;;;5.13;1.50;;;;;;;17.46;32.17;151669.53;5066321;28;20025;-68
2023/04/22 07:46:03;;;;;;;3.63;2.92;;;;;;;16.82;32.42;151509.72;5061761;28;20018;-67
2023/04/22 07:48:28;;;;;;;4.07;1.60;;;;;;;17.00;33.37;151554.84;5045963;28;20334;-67
2023/04/22 07:50:54;;;;;;;4.03;1.85;;;;;;;17.44;32.86;151665.66;5060010;28;20248;-66
2023/04/22 07:53:19;;;;;;;2.55;1.25;;;;;;;17.46;32.41;151669.53;5045890;28;20041;-67
2023/04/22 07:55:45;;;;;;;1.88;1.48;;;;;;;17.85;32.26;151768.81;5060817;28;20230;-67
2023/04/22 07:58:11;;;;;;;6.32;1.60;;;;;;;18.14;31.93;151839.78;5055573;28;20289;-65
2023/04/22 08:00:36;;;;;;;1.83;1.20;;;;;;;18.03;31.75;151812.72;5051440;28;20032;-67
2023/04/22 08:03:02;;;;;;;1.75;1.40;;;;;;;17.32;31.88;151636.03;5065383;28;20024;-66
2023/04/22 08:05:28;;;;;;;4.93;1.50;;;;;;;17.75;31.34;151743.03;5046043;28;20037;-66
2023/04/22 08:07:54;;;;;;;3.33;1.50;;;;;;;18.27;31.85;151873.28;5061946;28;20025;-66
2023/04/22 08:10:20;;;;;;;4.60;1.73;;;;;;;16.88;32.33;151526.50;5054212;28;20025;-67
2023/04/22 08:12:45;;;;;;;4.45;1.70;;;;;;;17.43;32.10;151664.41;5052598;28;20036;-66
2023/04/22 08:15:11;;;;;;;2.20;1.40;;;;;;;17.29;31.45;151628.31;5063619;28;20056;-66
2023/04/22 08:17:37;;;;;;;4.97;1.33;;;;;;;17.46;31.07;151670.84;5045825;28;20040;-66
2023/04/22 08:20:04;;;;;;;3.63;1.65;;;;;;;17.54;30.52;151690.16;5045484;28;20025;-66
2023/04/22 08:22:30;;;;;;;1.70;1.50;;;;;;;17.57;31.33;151699.22;5058146;28;20039;-65
2023/04/22 08:24:56;;;;;;;1.65;1.40;;;;;;;17.55;31.26;151692.75;5057720;28;20037;-66
2023/04/22 08:27:22;;;;;;;8.45;2.10;;;;;;;17.47;31.56;151672.13;5048117;28;20078;-66
2023/04/22 08:29:47;;;;;;;4.95;1.77;;;;;;;17.34;31.13;151641.19;5065738;28;20308;-66
2023/04/22 08:32:13;;;;;;;4.18;1.67;;;;;;;17.36;31.54;151645.09;5058120;28;20025;-65
2023/04/22 08:34:39;;;;;;;7.38;1.98;;;;;;;17.22;31.99;151611.53;5051660;28;20029;-65
2023/04/22 08:37:04;;;;;;;3.95;1.85;;;;;;;17.35;32.25;151643.75;5045274;28;20032;-66
2023/04/22 08:39:30;;;;;;;11.30;1.90;;;;;;;17.11;31.37;151581.91;5049261;28;20072;-65
2023/04/22 08:41:57;;;;;;;19.67;3.22;;;;;;;16.93;31.76;151536.81;5064097;28;20352;-66
2023/04/22 08:44:23;;;;;;;9.40;1.73;;;;;;;16.93;31.74;151538.13;5045463;28;20033;-66
2023/04/22 08:46:49;;;;;;;7.07;1.65;;;;;;;16.89;32.40;151527.81;5060223;28;20032;-66
2023/04/22 08:49:16;;;;;;;8.52;3.53;;;;;;;16.85;32.66;151518.72;5054509;28;20324;-67
2023/04/22 08:51:43;;;;;;;2.30;1.50;;;;;;;16.88;32.07;151526.50;5050692;28;20245;-66
2023/04/22 08:54:10;;;;;;;3.90;1.60;;;;;;;16.79;31.90;151501.97;5063487;28;20040;-65
2023/04/22 08:56:36;;;;;;;3.80;1.52;;;;;;;17.34;31.71;151639.91;5045057;28;20097;-66
2023/04/22 08:59:03;;;;;;;53.60;5.75;;;;;;;17.76;32.17;151746.88;5061643;28;20052;-66
2023/04/22 09:01:30;;;;;;;174.38;18.17;;;;;;;18.22;31.30;151860.41;5052524;28;20330;-65
2023/04/22 09:03:59;;;;;;;7.40;1.92;;;;;;;18.06;29.99;151821.72;5052146;28;20039;-65
2023/04/22 09:06:24;;;;;;;492.15;52.08;;;;;;;17.84;30.97;151764.94;5060928;28;20274;-65
2023/04/22 09:08:50;;;;;;;63.83;8.27;;;;;;;18.02;31.46;151810.13;5044591;28;20040;-66
2023/04/22 09:11:16;;;;;;;5.38;2.08;;;;;;;17.83;30.56;151762.34;5062937;28;20028;-66
2023/04/22 09:13:42;;;;;;;20.20;10.90;;;;;;;17.86;31.21;151770.13;5050397;28;20329;-67
2023/04/22 09:16:08;;;;;;;5.20;2.95;;;;;;;17.80;31.66;151754.63;5053319;28;20017;-66
2023/04/22 09:18:46;;;;;;;3.83;2.17;;;;;;;17.54;31.40;151691.47;5060172;28;20026;-66
2023/04/22 09:21:12;;;;;;;6.68;2.47;;;;;;;17.73;31.29;151739.16;5045877;28;20104;-67
2023/04/22 09:23:53;;;;;;;3.88;2.38;;;;;;;17.45;32.07;151667.00;5063356;28;20033;-67
2023/04/22 09:26:23;;;;;;;4.85;2.30;;;;;;;17.45;32.60;151668.25;5045288;28;20092;-66
2023/04/22 09:28:50;;;;;;;7.20;2.60;;;;;;;17.46;33.29;151670.84;5044280;28;20240;-66
2023/04/22 09:31:16;;;;;;;4.50;2.80;;;;;;;17.39;32.61;151654.06;5050676;28;20033;-66
2023/04/22 09:33:45;;;;;;;5.15;2.95;;;;;;;17.48;32.59;151675.97;5048766;28;20028;-66
2023/04/22 09:36:11;;;;;;;6.43;3.50;;;;;;;17.27;32.15;151621.88;5044965;28;20340;-66
2023/04/22 09:38:36;;;;;;;7.15;3.83;;;;;;;17.30;32.57;151630.91;5045524;28;20143;-66
2023/04/22 09:41:08;;;;;;;6.05;4.32;;;;;;;17.69;32.14;151728.84;5063964;28;20091;-67
2023/04/22 09:43:34;;;;;;;5.65;3.40;;;;;;;17.73;32.40;151737.91;5059615;28;20053;-66
2023/04/22 09:46:00;;;;;;;6.35;4.05;;;;;;;17.92;32.04;151785.63;5043926;28;20317;-67
2023/04/22 09:48:25;;;;;;;8.75;3.40;;;;;;;18.07;32.16;151824.31;5047095;28;20214;-67
2023/04/22 09:50:51;;;;;;;14.25;4.18;;;;;;;17.78;29.96;151750.75;5063844;28;20031;-66
2023/04/22 09:53:18;;;;;;;3.78;2.80;;;;;;;17.81;30.88;151758.47;5045826;28;20041;-65
2023/04/22 09:55:53;;;;;;;7.38;3.10;;;;;;;17.85;30.85;151767.53;5056220;28;20033;-66
2023/04/22 09:58:22;;;;;;;13.43;3.85;;;;;;;17.71;30.99;151732.72;5053364;28;20030;-66
2023/04/22 10:00:51;;;;;;;5.13;2.85;;;;;;;17.71;31.23;151732.72;5043830;28;20294;-66
2023/04/22 10:03:17;;;;;;;6.90;3.20;;;;;;;17.65;30.83;151717.25;5045200;28;20029;-67
2023/04/22 10:05:44;;;;;;;4.70;2.60;;;;;;;17.55;31.57;151692.75;5062542;28;20145;-66
2023/04/22 10:08:10;;;;;;;5.20;3.05;;;;;;;17.62;31.38;151710.81;5046302;28;20032;-65
2023/04/22 10:10:37;;;;;;;6.18;3.78;;;;;;;17.49;31.09;151678.56;5055692;28;20024;-66
2023/04/22 10:13:04;;;;;;;5.78;3.50;;;;;;;17.65;31.69;151717.25;5055302;28;20033;-65
2023/04/22 10:15:33;;;;;;;6.80;4.32;;;;;;;17.72;31.48;151736.56;5046251;28;20025;-65
2023/04/22 10:18:01;;;;;;;14.98;4.53;;;;;;;17.98;30.54;151799.81;5063440;28;20033;-66
2023/04/22 10:20:29;;;;;;;7.15;4.28;;;;;;;17.76;29.79;151746.88;5043578;28;20025;-66
2023/04/22 10:22:55;;;;;;;7.88;2.83;;;;;;;17.99;30.41;151803.69;5058022;28;20032;-68
2023/04/22 10:25:25;;;;;;;4.80;3.35;;;;;;;17.36;30.07;151645.09;5052833;28;20059;-66
2023/04/22 10:28:00;;;;;;;5.20;2.88;;;;;;;17.35;29.31;151642.50;5049553;28;20021;-66
2023/04/22 10:30:28;;;;;;;7.03;3.17;;;;;;;17.24;29.38;151615.41;5060506;28;20087;-65
2023/04/22 10:32:54;;;;;;;5.00;3.08;;;;;;;17.32;29.72;151636.03;5060065;28;20044;-66
2023/04/22 10:35:28;;;;;;;5.68;3.75;;;;;;;16.91;29.86;151534.22;5058995;28;20028;-66
2023/04/22 10:37:54;;;;;;;4.35;3.00;;;;;;;17.10;29.92;151579.34;5056641;28;20235;-66
2023/04/22 10:40:21;;;;;;;7.10;3.30;;;;;;;17.22;30.55;151611.53;5062749;28;20040;-65
2023/04/22 10:42:52;;;;;;;5.63;3.03;;;;;;;17.10;30.44;151580.59;5057665;28;20041;-66
2023/04/22 10:45:22;;;;;;;6.20;2.90;;;;;;;16.98;30.81;151550.97;5044111;28;20303;-66
2023/04/22 10:47:48;;;;;;;3.72;2.92;;;;;;;16.98;30.64;151549.72;5063180;28;20036;-66
2023/04/22 10:50:24;;;;;;;5.53;3.00;;;;;;;16.93;31.00;151536.81;5045366;28;20044;-65
2023/04/22 10:52:58;;;;;;;8.48;2.63;;;;;;;16.79;30.79;151501.97;5057315;28;20048;-66
2023/04/22 10:55:25;;;;;;;4.25;2.60;;;;;;;16.68;31.19;151474.94;5051318;28;20040;-67
2023/04/22 10:57:52;;;;;;;5.10;2.60;;;;;;;16.77;31.13;151496.81;5042919;28;20076;-65
2023/04/22 11:00:24;;;;;;;4.75;2.40;;;;;;;16.60;30.94;151455.56;5044000;28;20037;-66
2023/04/22 11:02:51;;;;;;;;;;;;;;;17.10;31.00;151579.34;5063712;28;20017;-66
2023/04/22 11:05:25;;;;;;;5.50;2.20;;;;;;;17.35;31.35;151643.75;5045074;28;19940;-66
2023/04/22 11:08:01;;;;;;;3.08;1.83;;;;;;;17.45;30.23;151667.00;5056755;28;20159;-66
2023/04/22 11:10:31;;;;;;;4.05;1.95;;;;;;;17.53;29.33;151688.91;5051983;28;20355;-66
2023/04/22 11:12:57;;;;;;;2.70;1.88;;;;;;;17.72;28.97;151736.56;5049527;28;20333;-67
2023/04/22 11:15:23;;;;;;;3.38;2.08;;;;;;;17.85;28.67;151768.81;5060582;28;20024;-69
2023/04/22 11:17:54;;;;;;;2.67;1.80;;;;;;;17.97;28.85;151798.53;5042733;28;20072;-67
2023/04/22 11:20:21;;;;;;;2.03;1.80;;;;;;;18.00;28.31;151804.94;5042605;28;20334;-67
2023/04/22 11:22:50;;;;;;;3.40;1.77;;;;;;;17.71;29.08;151733.97;5055999;28;20218;-65